Terminal Aerodrome Forecast
Issued by NWS

Home | Current Version | Previous Version | Text Only | Print | Product List | Glossary On
Versions: 1 2 3 4 5 6 7 8 9 10 11 12 13 14 15 16 17 18 19
000
FTUS43 KGRB 250500
TAFRHI
TAF
KRHI 250520Z 2506/2606 11008KT 4SM -RADZ SCT004 OVC010
      TEMPO 2506/2508 1SM -RASN BR BKN004
     FM250800 18004KT 2SM BR BKN004 OVC010
     FM251300 24005KT 4SM BR SCT005 OVC015
     FM251500 27012G20KT P6SM SCT018 BKN030 PROB30 2515/2521 -SHRAPL
      BKN018
     FM252100 29016G25KT P6SM BKN025 BKN040
     FM260100 32007KT P6SM BKN030=

USA.gov is the U.S. government's official web portal to all federal, state and local government web resources and services.